Time;durP1;ratioP1;P1;durP2;ratioP2;P2;SDS_P1;SDS_P2;PMS_P1;PMS_P2;Temp;Humidity;BMP_temperature;BMP_pressure;BME280_temperature;BME280_humidity;BME280_pressure;Samples;Min_cycle;Max_cycle;Signal;HPM_P1;HPM_P2
2022/11/29 00:00:39;;;;;;;;;;;8.70;99.90;;;;;;5040213;28;19922;-80
2022/11/29 00:03:04;;;;;;;;;;;8.70;99.90;;;;;;5018661;28;19932;-80
2022/11/29 00:05:32;;;;;;;;;;;8.60;99.90;;;;;;5041572;28;20011;-79
2022/11/29 00:07:58;;;;;;;;;;;8.70;99.90;;;;;;5028408;28;20017;-81
2022/11/29 00:10:23;;;;;;;;;;;8.60;99.90;;;;;;5024902;28;19992;-85
2022/11/29 00:12:49;;;;;;;;;;;8.60;99.90;;;;;;5024415;28;19995;-80
2022/11/29 00:15:14;;;;;;;;;;;8.70;99.90;;;;;;5020064;28;19921;-80
2022/11/29 00:17:40;;;;;;;;;;;8.70;99.90;;;;;;5023636;28;19921;-81
2022/11/29 00:20:06;;;;;;;;;;;8.70;99.90;;;;;;5019145;28;19921;-80
2022/11/29 00:22:31;;;;;;;;;;;8.60;99.90;;;;;;5025725;28;19921;-80
2022/11/29 00:24:57;;;;;;;;;;;8.70;99.90;;;;;;5021899;28;19998;-83
2022/11/29 00:27:23;;;;;;;;;;;8.60;99.90;;;;;;5016686;28;20233;-81
2022/11/29 00:29:48;;;;;;;;;;;8.60;99.90;;;;;;5022711;28;19928;-80
2022/11/29 00:32:14;;;;;;;;;;;8.60;99.90;;;;;;5024467;28;19921;-80
2022/11/29 00:34:39;;;;;;;;;;;8.60;99.90;;;;;;5024854;28;19921;-80
2022/11/29 00:37:05;;;;;;;;;;;8.60;99.90;;;;;;5037931;28;19921;-80
2022/11/29 00:39:30;;;;;;;;;;;8.60;99.90;;;;;;5037927;28;19925;-83
2022/11/29 00:41:56;;;;;;;;;;;8.60;99.90;;;;;;5023578;28;20221;-81
2022/11/29 00:44:21;;;;;;;;;;;8.60;99.90;;;;;;5006139;28;19928;-79
2022/11/29 00:46:47;;;;;;;;;;;8.60;99.90;;;;;;5034451;28;20008;-80
2022/11/29 00:49:13;;;;;;;;;;;8.60;99.90;;;;;;5023257;28;19921;-80
2022/11/29 00:51:39;;;;;;;;;;;8.60;99.90;;;;;;5016673;28;20284;-80
2022/11/29 00:54:04;;;;;;;;;;;8.60;99.90;;;;;;5035710;28;20691;-82
2022/11/29 00:56:30;;;;;;;;;;;8.60;99.90;;;;;;5018154;28;20288;-81
2022/11/29 00:58:55;;;;;;;;;;;8.60;99.90;;;;;;5036282;28;19927;-80
2022/11/29 01:01:21;;;;;;;;;;;8.60;99.90;;;;;;5034148;28;19932;-80
2022/11/29 01:03:47;;;;;;;;;;;8.50;99.90;;;;;;5036639;28;19956;-81
2022/11/29 01:06:13;;;;;;;;;;;8.50;99.90;;;;;;5023595;28;19921;-80
2022/11/29 01:08:39;;;;;;;;;;;8.40;99.90;;;;;;5019071;28;20021;-82
2022/11/29 01:11:06;;;;;;;;;;;8.40;99.90;;;;;;5011321;28;20004;-81
2022/11/29 01:13:32;;;;;;;;;;;8.30;99.90;;;;;;5007481;28;20432;-80
2022/11/29 01:15:58;;;;;;;;;;;8.20;99.90;;;;;;5036062;28;20308;-80
2022/11/29 01:18:24;;;;;;;;;;;8.20;99.90;;;;;;5018801;28;19921;-80
2022/11/29 01:21:00;;;;;;;;;;;8.10;99.90;;;;;;5018013;28;19996;-83
2022/11/29 01:23:26;;;;;;;;;;;8.10;99.90;;;;;;5016699;28;19957;-80
2022/11/29 01:25:56;;;;;;;;;;;8.10;99.90;;;;;;5032297;28;19973;-80
2022/11/29 01:28:21;;;;;;;;;;;8.00;99.90;;;;;;5029218;28;20360;-80
2022/11/29 01:30:47;;;;;;;;;;;8.00;99.90;;;;;;5020661;28;19944;-80
2022/11/29 01:33:12;;;;;;;;;;;8.00;99.90;;;;;;5024042;28;19975;-81
2022/11/29 01:35:38;;;;;;;;;;;8.00;99.90;;;;;;5025917;28;19929;-82
2022/11/29 01:38:04;;;;;;;;;;;7.90;99.90;;;;;;5018172;28;19925;-80
2022/11/29 01:40:29;;;;;;;;;;;7.90;99.90;;;;;;5018030;28;20012;-81
2022/11/29 01:42:55;;;;;;;;;;;7.90;99.90;;;;;;5014027;28;19924;-80
2022/11/29 01:45:22;;;;;;;;;;;7.90;99.90;;;;;;5031871;28;19929;-80
2022/11/29 01:47:49;;;;;;;;;;;7.90;99.90;;;;;;5017339;28;20304;-80
2022/11/29 01:50:15;;;;;;;;;;;7.90;99.90;;;;;;5038049;28;19998;-80
2022/11/29 01:52:41;;;;;;;;;;;7.90;99.90;;;;;;5030976;28;19928;-81
2022/11/29 01:55:08;;;;;;;;;;;7.90;99.90;;;;;;5016595;28;20347;-80
2022/11/29 01:57:35;;;;;;;;;;;7.90;99.90;;;;;;5023041;28;19925;-80
2022/11/29 02:00:07;;;;;;;;;;;7.80;99.90;;;;;;5033001;28;19979;-81
2022/11/29 02:02:35;;;;;;;;;;;7.80;99.90;;;;;;5034697;28;19921;-80
2022/11/29 02:05:01;;;;;;;;;;;7.80;99.90;;;;;;5019775;28;19925;-79
2022/11/29 02:07:27;;;;;;;;;;;7.80;99.90;;;;;;5017160;28;19948;-82
2022/11/29 02:09:53;;;;;;;;;;;7.80;99.90;;;;;;5019316;28;19939;-80
2022/11/29 02:12:21;;;;;;;;;;;7.80;99.90;;;;;;5028643;28;19974;-81
2022/11/29 02:14:47;;;;;;;;;;;7.80;99.90;;;;;;5002629;28;19925;-82
2022/11/29 02:17:23;;;;;;;;;;;7.80;99.90;;;;;;5014711;28;19921;-80
2022/11/29 02:19:58;;;;;;;;;;;7.80;99.90;;;;;;5017051;28;20035;-80
2022/11/29 02:22:29;;;;;;;;;;;7.80;99.90;;;;;;5013956;28;19928;-80
2022/11/29 02:24:54;;;;;;;;;;;7.70;99.90;;;;;;5030899;28;19921;-80
2022/11/29 02:27:26;;;;;;;;;;;7.80;99.90;;;;;;5014688;28;19921;-80
2022/11/29 02:30:10;;;;;;;;;;;7.80;99.90;;;;;;5033184;28;19925;-80
2022/11/29 02:32:54;;;;;;;;;;;7.80;99.90;;;;;;5020111;28;20335;-84
2022/11/29 02:35:20;;;;;;;;;;;7.80;99.90;;;;;;5034658;28;19925;-80
2022/11/29 02:38:02;;;;;;;;;;;7.80;99.90;;;;;;5014774;28;19921;-80
2022/11/29 02:40:46;;;;;;;;;;;7.80;99.90;;;;;;5017895;28;19926;-80
2022/11/29 02:43:30;;;;;;;;;;;7.80;99.90;;;;;;5018495;28;19921;-80
2022/11/29 02:46:09;;;;;;;;;;;7.80;99.90;;;;;;5016186;28;20284;-80
2022/11/29 02:48:37;;;;;;;;;;;7.80;99.90;;;;;;5022924;28;19925;-82
2022/11/29 02:51:03;;;;;;;;;;;7.80;99.90;;;;;;5018471;28;19920;-80
2022/11/29 02:53:47;;;;;;;;;;;7.80;99.90;;;;;;5004500;28;19967;-80
2022/11/29 02:56:22;;;;;;;;;;;7.80;99.90;;;;;;5017990;28;19921;-80
2022/11/29 02:59:03;;;;;;;;;;;7.80;99.90;;;;;;5021231;28;19932;-81
2022/11/29 03:01:36;;;;;;;;;;;7.80;99.90;;;;;;5018223;28;20265;-80
2022/11/29 03:04:04;;;;;;;;;;;7.80;99.90;;;;;;5023430;28;19921;-80
2022/11/29 03:06:30;;;;;;;;;;;7.80;99.90;;;;;;5019512;28;19929;-80
2022/11/29 03:09:10;;;;;;;;;;;7.80;99.90;;;;;;5032711;28;19925;-80
2022/11/29 03:11:58;;;;;;;;;;;7.80;99.90;;;;;;5016574;28;19940;-80
2022/11/29 03:14:50;;;;;;;;;;;7.80;99.90;;;;;;5019118;28;20328;-80
2022/11/29 03:17:21;;;;;;;;;;;7.80;99.90;;;;;;5034198;28;20462;-79
2022/11/29 03:19:59;;;;;;;;;;;7.90;99.90;;;;;;5019640;28;19921;-80
2022/11/29 03:22:43;;;;;;;;;;;7.90;99.90;;;;;;5018853;28;19975;-80
2022/11/29 03:25:09;;;;;;;;;;;7.90;99.90;;;;;;5021638;28;20027;-80
2022/11/29 03:27:41;;;;;;;;;;;7.80;99.90;;;;;;5023475;28;20400;-80
2022/11/29 03:30:11;;;;;;;;;;;7.80;99.90;;;;;;5034258;28;19933;-80
2022/11/29 03:32:37;;;;;;;;;;;7.80;99.90;;;;;;5021915;28;20391;-80
2022/11/29 03:35:15;;;;;;;;;;;7.80;99.90;;;;;;4997743;28;19927;-80
2022/11/29 03:37:54;;;;;;;;;;;7.80;99.90;;;;;;5038348;28;19925;-80
2022/11/29 03:40:49;;;;;;;;;;;7.80;99.90;;;;;;5027832;28;19972;-82
2022/11/29 03:43:41;;;;;;;;;;;7.80;99.90;;;;;;5023689;28;19921;-80
2022/11/29 03:46:13;;;;;;;;;;;7.80;99.90;;;;;;5023994;28;19922;-80
2022/11/29 03:48:43;;;;;;;;;;;7.80;99.90;;;;;;5003151;28;19925;-81
2022/11/29 03:51:27;;;;;;;;;;;7.80;99.90;;;;;;5023263;28;20008;-83
2022/11/29 03:53:52;;;;;;;;;;;7.80;99.90;;;;;;5020732;28;19925;-81
2022/11/29 03:56:35;;;;;;;;;;;7.80;99.90;;;;;;5015015;28;20380;-81
2022/11/29 03:59:00;;;;;;;;;;;7.80;99.90;;;;;;5014397;28;19948;-81
2022/11/29 04:01:46;;;;;;;;;;;7.80;99.90;;;;;;5023293;28;20372;-80
2022/11/29 04:04:23;;;;;;;;;;;7.80;99.90;;;;;;5017109;28;20280;-81
2022/11/29 04:07:01;;;;;;;;;;;7.70;99.90;;;;;;5017203;28;19922;-80
2022/11/29 04:09:32;;;;;;;;;;;7.80;99.90;;;;;;5017876;28;19932;-82
2022/11/29 04:12:16;;;;;;;;;;;7.70;99.90;;;;;;5019078;28;20016;-81
2022/11/29 04:14:54;;;;;;;;;;;7.70;99.90;;;;;;5027183;28;20000;-81
2022/11/29 04:17:26;;;;;;;;;;;7.80;99.90;;;;;;5023938;28;19972;-80
2022/11/29 04:19:55;;;;;;;;;;;7.80;99.90;;;;;;5038675;28;19979;-81
2022/11/29 04:22:23;;;;;;;;;;;7.70;99.90;;;;;;5023840;28;20353;-80
2022/11/29 04:24:53;;;;;;;;;;;7.70;99.90;;;;;;5004387;28;19925;-81
2022/11/29 04:27:24;;;;;;;;;;;7.70;99.90;;;;;;5019177;28;19929;-83
2022/11/29 04:29:50;;;;;;;;;;;7.70;99.90;;;;;;5026267;28;20009;-80
2022/11/29 04:32:34;;;;;;;;;;;7.70;99.90;;;;;;5037857;28;20004;-80
2022/11/29 04:35:15;;;;;;;;;;;7.70;99.90;;;;;;5021684;28;19921;-81
2022/11/29 04:37:47;;;;;;;;;;;7.70;99.90;;;;;;5028533;28;20414;-80
2022/11/29 04:40:27;;;;;;;;;;;7.60;99.90;;;;;;5017338;28;19922;-81
2022/11/29 04:43:07;;;;;;;;;;;7.60;99.90;;;;;;5021709;28;19936;-81
2022/11/29 04:45:33;;;;;;;;;;;7.60;99.90;;;;;;5011170;28;19932;-80
2022/11/29 04:48:17;;;;;;;;;;;7.60;99.90;;;;;;5017258;28;20376;-80
2022/11/29 04:50:49;;;;;;;;;;;7.60;99.90;;;;;;5030143;28;20014;-80
2022/11/29 04:53:17;;;;;;;;;;;7.60;99.90;;;;;;5015790;28;20019;-80
2022/11/29 04:55:55;;;;;;;;;;;7.60;99.90;;;;;;4998508;28;19921;-80
2022/11/29 04:58:30;;;;;;;;;;;7.60;99.90;;;;;;5020655;28;19922;-80
2022/11/29 05:00:59;;;;;;;;;;;7.60;99.90;;;;;;5024879;28;20019;-82
2022/11/29 05:03:38;;;;;;;;;;;7.60;99.90;;;;;;5033911;28;19925;-79
2022/11/29 05:06:10;;;;;;;;;;;7.60;99.90;;;;;;5018909;28;19921;-80
2022/11/29 05:08:47;;;;;;;;;;;7.50;99.90;;;;;;5021517;28;19925;-83
2022/11/29 05:11:18;;;;;;;;;;;7.50;99.90;;;;;;5032740;28;19922;-80
2022/11/29 05:13:43;;;;;;;;;;;7.50;99.90;;;;;;5035278;28;19966;-80
2022/11/29 05:16:27;;;;;;;;;;;7.50;99.90;;;;;;5017854;28;20004;-80
2022/11/29 05:18:53;;;;;;;;;;;7.50;99.90;;;;;;5049980;28;19924;-82
2022/11/29 05:21:37;;;;;;;;;;;7.50;99.90;;;;;;5030529;28;19921;-80
2022/11/29 05:24:18;;;;;;;;;;;7.50;99.90;;;;;;5013873;28;20422;-81
2022/11/29 05:26:43;;;;;;;;;;;7.40;99.90;;;;;;5014900;28;19921;-80
2022/11/29 05:29:11;;;;;;;;;;;7.40;99.90;;;;;;5026096;28;19971;-80
2022/11/29 05:31:37;;;;;;;;;;;7.40;99.90;;;;;;5034701;28;20349;-79
2022/11/29 05:34:21;;;;;;;;;;;7.40;99.90;;;;;;5022350;28;19932;-80
2022/11/29 05:37:05;;;;;;;;;;;7.40;99.90;;;;;;5016697;28;19921;-80
2022/11/29 05:39:42;;;;;;;;;;;7.40;99.90;;;;;;5023991;28;19928;-80
2022/11/29 05:42:10;;;;;;;;;;;7.30;99.90;;;;;;5003609;28;19996;-80
2022/11/29 05:44:37;;;;;;;;;;;7.30;99.90;;;;;;5015499;28;19921;-79
2022/11/29 05:47:04;;;;;;;;;;;7.30;99.90;;;;;;5020576;28;20293;-80
2022/11/29 05:49:36;;;;;;;;;;;7.30;99.90;;;;;;5019506;28;20181;-81
2022/11/29 05:52:14;;;;;;;;;;;7.30;99.90;;;;;;5032363;28;20404;-83
2022/11/29 05:54:43;;;;;;;;;;;7.30;99.90;;;;;;5017342;28;19928;-80
2022/11/29 05:57:20;;;;;;;;;;;7.30;99.90;;;;;;5027525;28;19921;-80
2022/11/29 05:59:48;;;;;;;;;;;7.30;99.90;;;;;;5020875;28;20498;-80
2022/11/29 06:02:43;;;;;;;;;;;7.30;99.90;;;;;;5027191;28;20014;-80
2022/11/29 06:05:15;;;;;;;;;;;7.30;99.90;;;;;;5030766;28;19922;-80
2022/11/29 06:07:41;;;;;;;;;;;7.30;99.90;;;;;;5027741;28;19921;-80
2022/11/29 06:10:16;;;;;;;;;;;7.30;99.90;;;;;;5018582;28;20382;-80
2022/11/29 06:12:46;;;;;;;;;;;7.30;99.90;;;;;;5016603;28;20430;-79
2022/11/29 06:15:27;;;;;;;;;;;7.30;99.90;;;;;;5019152;28;19921;-81
2022/11/29 06:18:11;;;;;;;;;;;7.30;99.90;;;;;;5007552;28;19928;-81
2022/11/29 06:20:57;;;;;;;;;;;7.30;99.90;;;;;;5009926;28;19983;-82
2022/11/29 06:23:44;;;;;;;;;;;7.20;99.90;;;;;;5023996;28;20004;-80
2022/11/29 06:26:28;;;;;;;;;;;7.20;99.90;;;;;;5016438;28;19921;-80
2022/11/29 06:29:12;;;;;;;;;;;7.20;99.90;;;;;;5018411;28;20404;-79
2022/11/29 06:31:41;;;;;;;;;;;7.20;99.90;;;;;;5017430;28;19929;-79
2022/11/29 06:34:18;;;;;;;;;;;7.20;99.90;;;;;;5001947;28;19921;-79
2022/11/29 06:36:50;;;;;;;;;;;7.20;99.90;;;;;;4996839;28;20364;-80
2022/11/29 06:39:16;;;;;;;;;;;7.20;99.90;;;;;;5019135;28;19929;-80
2022/11/29 06:41:42;;;;;;;;;;;7.20;99.90;;;;;;5034463;28;19921;-80
2022/11/29 06:44:08;;;;;;;;;;;7.20;99.90;;;;;;5017354;28;19947;-80
2022/11/29 06:46:41;;;;;;;;;;;7.20;99.90;;;;;;5014760;28;19925;-78
2022/11/29 06:49:06;;;;;;;;;;;7.20;99.90;;;;;;5016022;28;20253;-78
2022/11/29 06:51:32;;;;;;;;;;;7.20;99.90;;;;;;5013074;28;19921;-79
2022/11/29 06:54:17;;;;;;;;;;;7.20;99.90;;;;;;5015966;28;20036;-78
2022/11/29 06:56:45;;;;;;;;;;;7.20;99.90;;;;;;5012869;28;20418;-78
2022/11/29 06:59:10;;;;;;;;;;;7.20;99.90;;;;;;5029592;28;20383;-79
2022/11/29 07:01:39;;;;;;;;;;;7.10;99.90;;;;;;5032345;28;19976;-79
2022/11/29 07:04:23;;;;;;;;;;;7.10;99.90;;;;;;5032106;28;19975;-79
2022/11/29 07:06:49;;;;;;;;;;;7.10;99.90;;;;;;5028911;28;19921;-81
2022/11/29 07:09:16;;;;;;;;;;;7.20;99.90;;;;;;5030163;28;20221;-79
2022/11/29 07:11:43;;;;;;;;;;;7.10;99.90;;;;;;5013347;28;19929;-80
2022/11/29 07:14:09;;;;;;;;;;;7.10;99.90;;;;;;5013504;28;20029;-79
2022/11/29 07:16:37;;;;;;;;;;;7.10;99.90;;;;;;5029986;28;20323;-79
2022/11/29 07:19:29;;;;;;;;;;;7.20;99.90;;;;;;5029076;28;19944;-79
2022/11/29 07:21:58;;;;;;;;;;;7.20;99.90;;;;;;5037686;28;19921;-79
2022/11/29 07:24:37;;;;;;;;;;;7.20;99.90;;;;;;5036566;28;20390;-79
2022/11/29 07:27:09;;;;;;;;;;;7.20;99.90;;;;;;5035847;28;19921;-78
2022/11/29 07:29:50;;;;;;;;;;;7.20;99.90;;;;;;5022360;28;20261;-79
2022/11/29 07:32:15;;;;;;;;;;;7.20;99.90;;;;;;5020712;28;19928;-80
2022/11/29 07:34:50;;;;;;;;;;;7.20;99.90;;;;;;5039223;28;20019;-78
2022/11/29 07:37:24;;;;;;;;;;;7.10;99.90;;;;;;5029047;28;19928;-78
2022/11/29 07:40:04;;;;;;;;;;;7.20;99.90;;;;;;5011851;28;20292;-80
2022/11/29 07:42:36;;;;;;;;;;;7.20;99.90;;;;;;4996736;28;19931;-79
2022/11/29 07:45:09;;;;;;;;;;;7.10;99.90;;;;;;5011925;28;19922;-78
2022/11/29 07:47:34;;;;;;;;;;;7.20;99.90;;;;;;5013765;28;19921;-78
2022/11/29 07:50:00;;;;;;;;;;;7.20;99.90;;;;;;4997415;28;20391;-80
2022/11/29 07:52:26;;;;;;;;;;;7.20;99.90;;;;;;5029389;28;20272;-78
2022/11/29 07:54:52;;;;;;;;;;;7.20;99.90;;;;;;4995503;28;19922;-79
2022/11/29 07:57:17;;;;;;;;;;;7.20;99.90;;;;;;5012408;28;19929;-80
2022/11/29 07:59:43;;;;;;;;;;;7.20;99.90;;;;;;5013358;28;19975;-80
2022/11/29 08:02:09;;;;;;;;;;;7.20;99.90;;;;;;5011971;28;20284;-81
2022/11/29 08:04:39;;;;;;;;;;;7.20;99.90;;;;;;5010463;28;19928;-79
2022/11/29 08:07:04;;;;;;;;;;;7.20;99.90;;;;;;5020193;28;19930;-80
2022/11/29 08:09:30;;;;;;;;;;;7.30;99.90;;;;;;5013364;28;19921;-79
2022/11/29 08:11:56;;;;;;;;;;;7.20;99.90;;;;;;5015645;28;19921;-79
2022/11/29 08:14:21;;;;;;;;;;;7.20;99.90;;;;;;5045181;28;19921;-79
2022/11/29 08:16:47;;;;;;;;;;;7.30;99.90;;;;;;5040982;28;19924;-79
2022/11/29 08:19:12;;;;;;;;;;;7.30;99.90;;;;;;5029547;28;20179;-79
2022/11/29 08:21:38;;;;;;;;;;;7.30;99.90;;;;;;5014706;28;19971;-79
2022/11/29 08:24:04;;;;;;;;;;;7.30;99.90;;;;;;5016759;28;19976;-79
2022/11/29 08:26:29;;;;;;;;;;;7.30;99.90;;;;;;5029153;28;19921;-79
2022/11/29 08:28:55;;;;;;;;;;;7.30;99.90;;;;;;5031799;28;20423;-80
2022/11/29 08:31:21;;;;;;;;;;;7.40;99.90;;;;;;5016575;28;19922;-79
2022/11/29 08:33:46;;;;;;;;;;;7.30;99.90;;;;;;4999301;28;19944;-79
2022/11/29 08:36:14;;;;;;;;;;;7.30;99.90;;;;;;5001292;28;19921;-79
2022/11/29 08:38:39;;;;;;;;;;;7.40;99.90;;;;;;5014977;28;19933;-80
2022/11/29 08:41:06;;;;;;;;;;;7.40;99.90;;;;;;5015371;28;19921;-80
2022/11/29 08:43:32;;;;;;;;;;;7.40;99.90;;;;;;4982708;28;20390;-80
2022/11/29 08:45:58;;;;;;;;;;;7.40;99.90;;;;;;5016348;28;19929;-80
2022/11/29 08:48:24;;;;;;;;;;;7.40;99.90;;;;;;5016432;28;19928;-80
2022/11/29 08:50:50;;;;;;;;;;;7.40;99.90;;;;;;5000053;28;20426;-79
2022/11/29 08:56:00;;;;;;;;;;;7.50;99.90;;;;;;5051816;28;19921;-80
2022/11/29 08:58:25;;;;;;;;;;;7.50;99.90;;;;;;5035873;28;19925;-80
2022/11/29 09:00:51;;;;;;;;;;;7.50;99.90;;;;;;5034994;28;20360;-79
2022/11/29 09:06:08;;;;;;;;;;;7.40;99.90;;;;;;5034856;28;19921;-80
2022/11/29 09:08:34;;;;;;;;;;;7.60;99.90;;;;;;5035611;28;19925;-79
2022/11/29 09:10:59;;;;;;;;;;;7.60;99.90;;;;;;5035922;28;19924;-79
2022/11/29 09:13:25;;;;;;;;;;;7.60;99.90;;;;;;5036621;28;19922;-80
2022/11/29 09:15:50;;;;;;;;;;;7.60;99.90;;;;;;5033497;28;19921;-79
2022/11/29 09:18:16;;;;;;;;;;;7.70;99.90;;;;;;5016408;28;20337;-79
2022/11/29 09:20:45;;;;;;;;;;;7.60;99.90;;;;;;5040154;28;19928;-80
2022/11/29 09:23:12;;;;;;;;;;;7.70;99.90;;;;;;5031456;28;19921;-79
2022/11/29 09:25:37;;;;;;;;;;;7.70;99.90;;;;;;4999209;28;19984;-80
2022/11/29 09:28:03;;;;;;;;;;;7.70;99.90;;;;;;5014574;28;20032;-80
2022/11/29 09:30:30;;;;;;;;;;;7.70;99.90;;;;;;5031266;28;20315;-80
2022/11/29 09:32:56;;;;;;;;;;;7.70;99.90;;;;;;5017333;28;19928;-80
2022/11/29 09:35:22;;;;;;;;;;;7.70;99.90;;;;;;5034254;28;19928;-81
2022/11/29 09:37:47;;;;;;;;;;;7.70;99.90;;;;;;5033887;28;19925;-79
2022/11/29 09:40:18;;;;;;;;;;;7.70;99.90;;;;;;5017647;28;20434;-79
2022/11/29 09:42:50;;;;;;;;;;;7.70;99.90;;;;;;5034072;28;19991;-80
2022/11/29 09:45:23;;;;;;;;;;;7.80;99.90;;;;;;5034740;28;20443;-80
2022/11/29 09:47:56;;;;;;;;;;;7.80;99.90;;;;;;5033702;28;19932;-80
2022/11/29 09:50:30;;;;;;;;;;;7.70;99.90;;;;;;5034002;28;19921;-80
2022/11/29 09:53:14;;;;;;;;;;;7.70;99.90;;;;;;5033766;28;20034;-80
2022/11/29 09:55:54;;;;;;;;;;;7.80;99.90;;;;;;5001199;28;19944;-79
2022/11/29 09:58:22;;;;;;;;;;;7.80;99.90;;;;;;5013693;28;20005;-80
2022/11/29 10:00:49;;;;;;;;;;;7.80;99.90;;;;;;4997846;28;20411;-80
2022/11/29 10:03:26;;;;;;;;;;;7.80;99.90;;;;;;5015187;28;19943;-80
2022/11/29 10:05:56;;;;;;;;;;;7.80;99.90;;;;;;5014873;28;19922;-80
2022/11/29 10:08:22;;;;;;;;;;;7.80;99.90;;;;;;5034690;28;19921;-79
2022/11/29 10:10:48;;;;;;;;;;;7.90;99.90;;;;;;5033700;28;19928;-80
2022/11/29 10:13:16;;;;;;;;;;;7.80;99.90;;;;;;5033515;28;20007;-80
2022/11/29 10:15:46;;;;;;;;;;;7.90;99.90;;;;;;5023896;28;19921;-80
2022/11/29 10:18:11;;;;;;;;;;;7.90;99.90;;;;;;5031697;28;20046;-80
2022/11/29 10:20:38;;;;;;;;;;;7.90;99.90;;;;;;5014563;28;19921;-79
2022/11/29 10:23:09;;;;;;;;;;;8.00;99.90;;;;;;5029986;28;20268;-79
2022/11/29 10:25:41;;;;;;;;;;;8.00;99.90;;;;;;5013952;28;19921;-79
2022/11/29 10:28:11;;;;;;;;;;;8.00;99.90;;;;;;5014530;28;19979;-80
2022/11/29 10:30:38;;;;;;;;;;;8.00;99.90;;;;;;5013747;28;19945;-80
2022/11/29 10:33:09;;;;;;;;;;;8.10;99.90;;;;;;5014498;28;20016;-79
2022/11/29 10:35:34;;;;;;;;;;;8.10;99.90;;;;;;5014587;28;19968;-79
2022/11/29 10:38:00;;;;;;;;;;;8.10;99.90;;;;;;5014312;28;19928;-80
2022/11/29 10:40:32;;;;;;;;;;;8.10;99.90;;;;;;5014290;28;19921;-79
2022/11/29 10:42:58;;;;;;;;;;;8.20;99.90;;;;;;5014272;28;19925;-80
2022/11/29 10:45:38;;;;;;;;;;;8.20;99.90;;;;;;5013009;28;19929;-79
2022/11/29 10:48:11;;;;;;;;;;;8.20;99.90;;;;;;5030834;28;19928;-79
2022/11/29 10:50:38;;;;;;;;;;;8.30;99.90;;;;;;5032855;28;19932;-79
2022/11/29 10:53:05;;;;;;;;;;;8.30;99.90;;;;;;5033909;28;20019;-80
2022/11/29 10:55:50;;;;;;;;;;;8.30;99.90;;;;;;5030548;28;20383;-79
2022/11/29 10:58:18;;;;;;;;;;;8.40;99.90;;;;;;5012872;28;20357;-80
2022/11/29 11:00:52;;;;;;;;;;;8.40;99.90;;;;;;5016259;28;19921;-79
2022/11/29 11:03:39;;;;;;;;;;;8.50;99.90;;;;;;5034902;28;19990;-78
2022/11/29 11:06:05;;;;;;;;;;;8.50;99.90;;;;;;5031498;28;19976;-81
2022/11/29 11:08:31;;;;;;;;;;;8.60;99.90;;;;;;5035570;28;20299;-80
2022/11/29 11:10:57;;;;;;;;;;;8.60;99.90;;;;;;5029625;28;20011;-79
2022/11/29 11:13:24;;;;;;;;;;;8.60;99.90;;;;;;4996301;28;20360;-80
2022/11/29 11:15:55;;;;;;;;;;;8.70;99.90;;;;;;5012557;28;19932;-80
2022/11/29 11:18:21;;;;;;;;;;;8.70;99.90;;;;;;4999485;28;19928;-80
2022/11/29 11:20:55;;;;;;;;;;;8.70;99.90;;;;;;5033021;28;19944;-80
2022/11/29 11:23:30;;;;;;;;;;;8.70;99.90;;;;;;5016472;28;19932;-79
2022/11/29 11:25:58;;;;;;;;;;;8.80;99.90;;;;;;5019556;28;19921;-79
2022/11/29 11:28:33;;;;;;;;;;;8.80;99.90;;;;;;5032012;28;19921;-80
2022/11/29 11:31:01;;;;;;;;;;;8.90;99.90;;;;;;5033391;28;19921;-80
2022/11/29 11:33:32;;;;;;;;;;;8.90;99.90;;;;;;5032510;28;19920;-81
2022/11/29 11:36:20;;;;;;;;;;;8.80;99.90;;;;;;5030594;28;20401;-80
2022/11/29 11:38:57;;;;;;;;;;;8.80;99.90;;;;;;5012487;28;19921;-80
2022/11/29 11:44:28;;;;;;;;;;;8.90;99.90;;;;;;5027369;28;20376;-80
2022/11/29 11:46:54;;;;;;;;;;;9.00;99.90;;;;;;5023927;28;20351;-80
2022/11/29 11:49:25;;;;;;;;;;;9.00;99.90;;;;;;5028079;28;19925;-79
2022/11/29 11:51:51;;;;;;;;;;;9.00;99.90;;;;;;5046751;28;20011;-80
2022/11/29 11:54:16;;;;;;;;;;;9.10;99.90;;;;;;5033578;28;20012;-80
2022/11/29 11:56:44;;;;;;;;;;;9.00;99.90;;;;;;5014931;28;19922;-79
2022/11/29 11:59:20;;;;;;;;;;;9.00;99.90;;;;;;5033490;28;20335;-80
2022/11/29 12:01:45;;;;;;;;;;;9.00;99.90;;;;;;5046563;28;19960;-80
2022/11/29 12:04:11;;;;;;;;;;;9.10;99.90;;;;;;5026590;28;19965;-81
2022/11/29 12:06:42;;;;;;;;;;;9.10;99.90;;;;;;5017108;28;20403;-80
2022/11/29 12:09:08;;;;;;;;;;;9.00;99.90;;;;;;5016833;28;19980;-80
2022/11/29 12:11:41;;;;;;;;;;;9.10;99.90;;;;;;5016971;28;19971;-79
2022/11/29 12:14:12;;;;;;;;;;;9.10;99.90;;;;;;5024731;28;19929;-79
2022/11/29 12:16:37;;;;;;;;;;;9.10;99.90;;;;;;5022231;28;19972;-79
2022/11/29 12:19:23;;;;;;;;;;;9.10;99.90;;;;;;5024480;28;19921;-79
2022/11/29 12:21:51;;;;;;;;;;;9.10;99.90;;;;;;5029755;28;20350;-80
2022/11/29 12:24:22;;;;;;;;;;;9.10;99.90;;;;;;5014750;28;19971;-78
2022/11/29 12:26:48;;;;;;;;;;;9.10;99.90;;;;;;5021186;28;20301;-79
2022/11/29 12:29:16;;;;;;;;;;;9.10;99.90;;;;;;5024400;28;19917;-79
2022/11/29 12:31:44;;;;;;;;;;;9.10;99.90;;;;;;5031471;28;20304;-79
2022/11/29 12:34:30;;;;;;;;;;;9.10;99.90;;;;;;5021142;28;19917;-81
2022/11/29 12:36:55;;;;;;;;;;;9.00;99.90;;;;;;5024341;28;19971;-79
2022/11/29 12:39:39;;;;;;;;;;;9.00;99.90;;;;;;5019723;28;19921;-79
2022/11/29 12:42:05;;;;;;;;;;;9.00;99.90;;;;;;5026548;28;20284;-81
2022/11/29 12:44:43;;;;;;;;;;;9.00;99.90;;;;;;5027155;28;19917;-79
2022/11/29 12:47:21;;;;;;;;;;;9.00;99.90;;;;;;5022746;28;19929;-82
2022/11/29 12:49:53;;;;;;;;;;;9.00;99.90;;;;;;5013877;28;19917;-78
2022/11/29 12:52:22;;;;;;;;;;;9.00;99.90;;;;;;5026511;28;19921;-79
2022/11/29 12:55:03;;;;;;;;;;;9.00;99.90;;;;;;5022876;28;20439;-79
2022/11/29 12:57:38;;;;;;;;;;;9.00;99.90;;;;;;5017108;28;19921;-79
2022/11/29 13:00:09;;;;;;;;;;;9.00;99.90;;;;;;5015752;28;20339;-80
2022/11/29 13:02:37;;;;;;;;;;;9.00;99.90;;;;;;5018428;28;20021;-79
2022/11/29 13:05:22;;;;;;;;;;;8.90;99.90;;;;;;5014425;28;19917;-79
2022/11/29 13:07:50;;;;;;;;;;;8.90;99.90;;;;;;5016352;28;19923;-78
2022/11/29 13:10:24;;;;;;;;;;;8.90;99.90;;;;;;5024140;28;20368;-79
2022/11/29 13:12:52;;;;;;;;;;;8.90;99.90;;;;;;5022349;28;19917;-79
2022/11/29 13:15:19;;;;;;;;;;;8.90;99.90;;;;;;5007652;28;19921;-81
2022/11/29 13:17:57;;;;;;;;;;;8.90;99.90;;;;;;5017889;28;19921;-79
2022/11/29 13:20:31;;;;;;;;;;;8.90;99.90;;;;;;5015800;28;19928;-79
2022/11/29 13:23:06;;;;;;;;;;;8.90;99.90;;;;;;5014980;28;19917;-79
2022/11/29 13:25:37;;;;;;;;;;;8.90;99.90;;;;;;5014305;28;19987;-79
2022/11/29 13:28:06;;;;;;;;;;;8.90;99.90;;;;;;5015636;28;19917;-79
2022/11/29 13:30:33;;;;;;;;;;;8.90;99.90;;;;;;5043037;28;19917;-79
2022/11/29 13:33:03;;;;;;;;;;;8.90;99.90;;;;;;5017820;28;19925;-78
2022/11/29 13:35:36;;;;;;;;;;;8.90;99.90;;;;;;5035283;28;19921;-79
2022/11/29 13:38:13;;;;;;;;;;;8.80;99.90;;;;;;5030683;28;19917;-80
2022/11/29 13:40:50;;;;;;;;;;;8.90;99.90;;;;;;5015211;28;19917;-80
2022/11/29 13:43:22;;;;;;;;;;;8.90;99.90;;;;;;5015181;28;20367;-79
2022/11/29 13:45:57;;;;;;;;;;;8.90;99.90;;;;;;5015441;28;20258;-79
2022/11/29 13:48:28;;;;;;;;;;;8.90;99.90;;;;;;5014384;28;19957;-80
2022/11/29 13:50:57;;;;;;;;;;;8.90;99.90;;;;;;5030681;28;19975;-79
2022/11/29 13:53:24;;;;;;;;;;;8.90;99.90;;;;;;5021551;28;19964;-79
2022/11/29 13:56:00;;;;;;;;;;;8.90;99.90;;;;;;5048452;28;19921;-80
2022/11/29 13:58:33;;;;;;;;;;;8.90;99.90;;;;;;5047249;28;19917;-79
2022/11/29 14:01:06;;;;;;;;;;;8.90;99.90;;;;;;5014519;28;20439;-80
2022/11/29 14:03:37;;;;;;;;;;;8.90;99.90;;;;;;5029946;28;19917;-80
2022/11/29 14:06:31;;;;;;;;;;;9.00;99.90;;;;;;5046978;28;20016;-80
2022/11/29 14:09:15;;;;;;;;;;;8.90;99.90;;;;;;5030582;28;20021;-79
2022/11/29 14:11:47;;;;;;;;;;;8.90;99.90;;;;;;5013906;28;19928;-79
2022/11/29 14:14:15;;;;;;;;;;;8.90;99.90;;;;;;5014606;28;19921;-80
2022/11/29 14:16:41;;;;;;;;;;;8.90;99.90;;;;;;5030299;28;19924;-80
2022/11/29 14:19:06;;;;;;;;;;;8.90;99.90;;;;;;5029774;28;20004;-80
2022/11/29 14:21:51;;;;;;;;;;;8.90;99.90;;;;;;5029877;28;20404;-81
2022/11/29 14:24:34;;;;;;;;;;;8.90;99.90;;;;;;5014528;28;19921;-79
2022/11/29 14:27:11;;;;;;;;;;;8.90;99.90;;;;;;5030184;28;19940;-80
2022/11/29 14:29:52;;;;;;;;;;;8.90;99.90;;;;;;5046598;28;19922;-80
2022/11/29 14:32:22;;;;;;;;;;;8.90;99.90;;;;;;5029555;28;19982;-80
2022/11/29 14:34:57;;;;;;;;;;;8.90;99.90;;;;;;5014145;28;20389;-80
2022/11/29 14:37:28;;;;;;;;;;;8.90;99.90;;;;;;5013333;28;20356;-80
2022/11/29 14:39:56;;;;;;;;;;;8.90;99.90;;;;;;5013425;28;20283;-80
2022/11/29 14:42:28;;;;;;;;;;;8.90;99.90;;;;;;5020310;28;19917;-80
2022/11/29 14:44:59;;;;;;;;;;;8.90;99.90;;;;;;5032666;28;19921;-80
2022/11/29 14:47:30;;;;;;;;;;;8.90;99.90;;;;;;5033039;28;20348;-79
2022/11/29 14:49:57;;;;;;;;;;;8.90;99.90;;;;;;5040481;28;19925;-79
2022/11/29 14:52:22;;;;;;;;;;;8.90;99.90;;;;;;5037785;28;20023;-79
2022/11/29 14:54:51;;;;;;;;;;;8.90;99.90;;;;;;5004026;28;19968;-79
2022/11/29 14:57:55;;;;;;;;;;;8.80;99.90;;;;;;5019334;28;20271;-80
2022/11/29 15:00:23;;;;;;;;;;;8.90;99.90;;;;;;5021907;28;20352;-80
2022/11/29 15:02:55;;;;;;;;;;;8.90;99.90;;;;;;5036454;28;20371;-80